Time;durP1;ratioP1;P1;durP2;ratioP2;P2;SDS_P1;SDS_P2;PMS_P1;PMS_P2;Temp;Humidity;BMP_temperature;BMP_pressure;BME280_temperature;BME280_humidity;BME280_pressure;Samples;Min_cycle;Max_cycle;Signal;HPM_P1;HPM_P2
2021/10/08 00:00:40;;;;;;;1.23;0.10;;;10.50;98.50;;;;;;5015740;28;20547;-69
2021/10/08 00:03:05;;;;;;;1.43;0.40;;;10.50;98.50;;;;;;5014307;28;20704;-70
2021/10/08 00:05:31;;;;;;;0.10;0.10;;;;;;;;;;5017090;28;20283;-70
2021/10/08 00:08:02;;;;;;;2.03;0.20;;;10.50;98.50;;;;;;5010914;28;20220;-69
2021/10/08 00:10:28;;;;;;;0.20;0.20;;;10.50;98.50;;;;;;5011907;28;20311;-69
2021/10/08 00:12:54;;;;;;;2.17;0.20;;;10.50;98.50;;;;;;5015181;28;20203;-69
2021/10/08 00:15:20;;;;;;;0.30;0.30;;;10.50;98.50;;;;;;5016848;28;20192;-69
2021/10/08 00:17:45;;;;;;;0.20;0.20;;;10.50;98.50;;;;;;5013828;28;20658;-69
2021/10/08 00:20:11;;;;;;;1.70;0.20;;;10.50;98.50;;;;;;5015600;28;20189;-69
2021/10/08 00:22:37;;;;;;;0.10;0.10;;;10.50;98.50;;;;;;5014088;28;20194;-69
2021/10/08 00:25:03;;;;;;;0.20;0.20;;;10.50;98.50;;;;;;5012960;28;20242;-69
2021/10/08 00:27:29;;;;;;;0.20;0.20;;;10.50;98.50;;;;;;5014968;28;20213;-69
2021/10/08 00:29:55;;;;;;;0.10;0.10;;;10.50;98.50;;;;;;5015834;28;20196;-70
2021/10/08 00:32:20;;;;;;;0.23;0.20;;;10.50;98.50;;;;;;5015389;28;20239;-68
2021/10/08 00:34:46;;;;;;;0.67;0.10;;;10.50;98.50;;;;;;5015156;28;20181;-68
2021/10/08 00:37:12;;;;;;;0.10;0.10;;;10.50;98.50;;;;;;5009361;28;20192;-69
2021/10/08 00:39:37;;;;;;;0.10;0.10;;;10.50;98.50;;;;;;5013900;28;20749;-70
2021/10/08 00:42:05;;;;;;;0.10;0.10;;;10.50;98.50;;;;;;5009858;28;20180;-70
2021/10/08 00:44:31;;;;;;;0.20;0.20;;;10.50;98.50;;;;;;5009039;28;20213;-69
2021/10/08 00:46:58;;;;;;;0.10;0.10;;;10.60;98.50;;;;;;5006641;28;20216;-70
2021/10/08 00:49:23;;;;;;;0.10;0.10;;;10.50;98.50;;;;;;5012801;28;20216;-70
2021/10/08 00:51:49;;;;;;;0.10;0.10;;;10.50;98.50;;;;;;5017504;28;20215;-70
2021/10/08 00:54:15;;;;;;;0.13;0.13;;;10.60;98.50;;;;;;5009236;28;20180;-70
2021/10/08 00:56:41;;;;;;;0.00;0.00;;;10.60;98.50;;;;;;5010038;28;20189;-70
2021/10/08 00:59:07;;;;;;;0.10;0.10;;;10.50;98.50;;;;;;5003602;28;20189;-70
2021/10/08 01:01:33;;;;;;;0.10;0.10;;;10.50;98.50;;;;;;5011240;28;20234;-70
2021/10/08 01:03:59;;;;;;;0.10;0.10;;;10.50;98.50;;;;;;5014546;28;20208;-69
2021/10/08 01:06:25;;;;;;;0.20;0.20;;;10.40;98.50;;;;;;5007300;28;20299;-69
2021/10/08 01:08:50;;;;;;;0.07;0.07;;;10.40;98.50;;;;;;5013116;28;20210;-68
2021/10/08 01:11:19;;;;;;;0.10;0.10;;;10.40;98.50;;;;;;5014029;28;20188;-69
2021/10/08 01:13:48;;;;;;;0.10;0.10;;;10.40;98.50;;;;;;5008989;28;20197;-69
2021/10/08 01:16:19;;;;;;;1.60;0.20;;;10.30;98.50;;;;;;5012630;28;20181;-69
2021/10/08 01:18:47;;;;;;;0.20;0.20;;;10.30;98.50;;;;;;5014519;28;20196;-70
2021/10/08 01:21:12;;;;;;;0.10;0.10;;;10.30;98.50;;;;;;5008306;28;20355;-70
2021/10/08 01:23:38;;;;;;;0.10;0.10;;;10.40;98.50;;;;;;5010156;28;20662;-70
2021/10/08 01:26:04;;;;;;;0.10;0.10;;;10.40;98.50;;;;;;5012812;28;20212;-69
2021/10/08 01:28:30;;;;;;;0.20;0.20;;;10.30;98.50;;;;;;5012585;28;20210;-69
2021/10/08 01:30:56;;;;;;;0.13;0.13;;;10.30;98.50;;;;;;5008390;28;20185;-69
2021/10/08 01:33:22;;;;;;;0.50;0.20;;;10.30;98.50;;;;;;5012961;28;20188;-70
2021/10/08 01:35:47;;;;;;;0.00;0.00;;;10.30;98.50;;;;;;5011215;28;20721;-70
2021/10/08 01:38:13;;;;;;;0.20;0.20;;;10.30;98.50;;;;;;5007716;28;20208;-69
2021/10/08 01:40:39;;;;;;;0.17;0.17;;;10.30;98.50;;;;;;5013024;28;20232;-69
2021/10/08 01:43:04;;;;;;;0.20;0.20;;;10.40;98.50;;;;;;5010960;28;20191;-70
2021/10/08 01:45:30;;;;;;;0.10;0.10;;;10.30;98.50;;;;;;5015602;28;20242;-69
2021/10/08 01:47:56;;;;;;;0.20;0.20;;;10.30;98.50;;;;;;5009576;28;20216;-69
2021/10/08 01:50:22;;;;;;;0.20;0.20;;;10.30;98.50;;;;;;5015674;28;20572;-69
2021/10/08 01:52:48;;;;;;;0.10;0.10;;;10.30;98.50;;;;;;5014199;28;20191;-69
2021/10/08 01:55:14;;;;;;;0.60;0.20;;;10.30;98.50;;;;;;5012769;28;20711;-69
2021/10/08 01:57:39;;;;;;;0.30;0.30;;;10.30;98.50;;;;;;5014278;28;20354;-69
2021/10/08 02:00:06;;;;;;;0.30;0.30;;;10.20;98.50;;;;;;5016010;28;20256;-69
2021/10/08 02:02:32;;;;;;;0.53;0.53;;;10.20;98.50;;;;;;5010466;28;20176;-69
2021/10/08 02:04:57;;;;;;;0.27;0.27;;;10.20;98.50;;;;;;5011567;28;20823;-69
2021/10/08 02:07:25;;;;;;;0.40;0.40;;;;;;;;;;5014657;28;20240;-69
2021/10/08 02:09:51;;;;;;;0.30;0.30;;;10.10;98.50;;;;;;5009426;28;20701;-67
2021/10/08 02:12:16;;;;;;;0.63;0.40;;;10.10;98.50;;;;;;5011909;28;20267;-70
2021/10/08 02:14:42;;;;;;;0.27;0.27;;;10.10;98.50;;;;;;5013791;28;20255;-69
2021/10/08 02:17:08;;;;;;;0.10;0.10;;;10.10;98.50;;;;;;5012850;28;20192;-69
2021/10/08 02:19:34;;;;;;;0.20;0.20;;;10.20;98.50;;;;;;5010883;28;20665;-68
2021/10/08 02:22:01;;;;;;;1.13;0.30;;;10.10;98.50;;;;;;5009525;28;20263;-69
2021/10/08 02:24:27;;;;;;;0.40;0.40;;;10.10;98.50;;;;;;5012513;28;20180;-69
2021/10/08 02:26:53;;;;;;;2.97;0.40;;;10.20;98.50;;;;;;5011836;28;20204;-69
2021/10/08 02:29:18;;;;;;;0.30;0.30;;;10.20;98.50;;;;;;5012042;28;20200;-69
2021/10/08 02:31:44;;;;;;;2.23;0.47;;;10.10;98.50;;;;;;5014977;28;20676;-70
2021/10/08 02:34:10;;;;;;;0.30;0.30;;;10.20;98.50;;;;;;5006354;28;20193;-69
2021/10/08 02:36:35;;;;;;;0.30;0.30;;;10.20;98.50;;;;;;5012641;28;20242;-69
2021/10/08 02:39:01;;;;;;;0.30;0.30;;;10.20;98.50;;;;;;5010257;28;20193;-68
2021/10/08 02:41:27;;;;;;;0.40;0.40;;;10.20;98.50;;;;;;5016815;28;20283;-69
2021/10/08 02:43:53;;;;;;;0.73;0.60;;;10.10;98.50;;;;;;5013570;28;20184;-69
2021/10/08 02:46:18;;;;;;;0.60;0.60;;;10.10;98.50;;;;;;5014807;28;20208;-69
2021/10/08 02:48:44;;;;;;;0.30;0.30;;;10.00;98.50;;;;;;5012453;28;20251;-69
2021/10/08 02:51:10;;;;;;;0.50;0.50;;;10.00;98.50;;;;;;5007549;28;20192;-71
2021/10/08 02:53:36;;;;;;;0.50;0.50;;;10.00;98.50;;;;;;5015010;28;20177;-70
2021/10/08 02:56:03;;;;;;;0.50;0.50;;;10.00;98.50;;;;;;5010378;28;20188;-70
2021/10/08 02:58:29;;;;;;;0.50;0.50;;;10.10;98.50;;;;;;5008150;28;21017;-69
2021/10/08 03:00:55;;;;;;;0.60;0.60;;;10.00;98.50;;;;;;5009925;28;20193;-69
2021/10/08 03:03:20;;;;;;;0.50;0.50;;;10.00;98.50;;;;;;5015249;28;20208;-69
2021/10/08 03:05:46;;;;;;;1.60;0.60;;;10.00;98.50;;;;;;5012688;28;20188;-69
2021/10/08 03:08:12;;;;;;;0.47;0.47;;;10.00;98.50;;;;;;5015272;28;20585;-70
2021/10/08 03:10:38;;;;;;;0.30;0.30;;;10.00;98.50;;;;;;5011527;28;20188;-70
2021/10/08 03:13:03;;;;;;;0.40;0.40;;;10.00;98.50;;;;;;5017241;28;20279;-70
2021/10/08 03:15:29;;;;;;;0.47;0.47;;;10.00;98.50;;;;;;5019571;28;20184;-69
2021/10/08 03:17:55;;;;;;;0.43;0.43;;;10.10;98.50;;;;;;5013860;28;20176;-69
2021/10/08 03:20:21;;;;;;;2.00;0.60;;;;;;;;;;5017737;28;20184;-69
2021/10/08 03:22:47;;;;;;;0.60;0.60;;;10.20;98.50;;;;;;5016407;28;20229;-69
2021/10/08 03:25:13;;;;;;;0.30;0.30;;;10.10;98.50;;;;;;5016611;28;20297;-69
2021/10/08 03:27:40;;;;;;;0.50;0.50;;;10.10;98.50;;;;;;5019491;28;20216;-69
2021/10/08 03:30:09;;;;;;;1.23;0.50;;;10.10;98.50;;;;;;5014947;28;20359;-69
2021/10/08 03:32:35;;;;;;;0.30;0.30;;;10.20;98.50;;;;;;5007279;28;20193;-69
2021/10/08 03:35:01;;;;;;;1.17;0.50;;;;;;;;;;5011306;28;20619;-69
2021/10/08 03:37:35;;;;;;;0.40;0.40;;;10.20;98.50;;;;;;5016602;28;20181;-69
2021/10/08 03:40:02;;;;;;;0.50;0.50;;;10.20;98.50;;;;;;5013694;28;20325;-69
2021/10/08 03:42:28;;;;;;;0.30;0.30;;;;;;;;;;5014977;28;20188;-69
2021/10/08 03:44:57;;;;;;;0.30;0.30;;;10.00;98.50;;;;;;5014358;28;20188;-69
2021/10/08 03:47:28;;;;;;;0.30;0.30;;;10.10;98.50;;;;;;5013424;28;20668;-69
2021/10/08 03:49:54;;;;;;;0.20;0.20;;;;;;;;;;5017554;28;20181;-68
2021/10/08 03:52:19;;;;;;;0.20;0.20;;;10.10;98.50;;;;;;5016987;28;20184;-69
2021/10/08 03:54:45;;;;;;;0.30;0.30;;;10.10;98.50;;;;;;5014836;28;20723;-69
2021/10/08 03:57:11;;;;;;;0.37;0.30;;;10.10;98.50;;;;;;5018467;28;20184;-70
2021/10/08 03:59:36;;;;;;;0.20;0.20;;;10.00;98.50;;;;;;5014177;28;20256;-69
2021/10/08 04:02:02;;;;;;;0.20;0.20;;;10.00;98.50;;;;;;5012497;28;20189;-73
2021/10/08 04:04:28;;;;;;;0.20;0.20;;;10.10;98.50;;;;;;5018942;28;20330;-73
2021/10/08 04:06:54;;;;;;;0.63;0.20;;;10.10;98.50;;;;;;5013275;28;20208;-73
2021/10/08 04:09:19;;;;;;;0.30;0.30;;;10.10;98.50;;;;;;5019535;28;20200;-74
2021/10/08 04:11:45;;;;;;;0.20;0.20;;;10.20;98.50;;;;;;5014998;28;20232;-73
2021/10/08 04:14:11;;;;;;;2.10;0.10;;;10.20;98.50;;;;;;5013884;28;20197;-73
2021/10/08 04:16:37;;;;;;;0.20;0.20;;;10.20;98.50;;;;;;5016519;28;20228;-73
2021/10/08 04:19:04;;;;;;;0.20;0.20;;;10.20;98.50;;;;;;5013788;28;20235;-73
2021/10/08 04:21:30;;;;;;;0.23;0.23;;;;;;;;;;5008385;28;20212;-73
2021/10/08 04:23:56;;;;;;;0.70;0.33;;;;;;;;;;5012100;28;20188;-72
2021/10/08 04:26:21;;;;;;;0.43;0.30;;;10.20;98.50;;;;;;5013246;28;20209;-74
2021/10/08 04:28:47;;;;;;;0.20;0.20;;;10.20;98.50;;;;;;5012277;28;20192;-74
2021/10/08 04:31:13;;;;;;;0.17;0.17;;;10.20;98.50;;;;;;5005323;28;20181;-74
2021/10/08 04:33:39;;;;;;;0.20;0.20;;;10.20;98.50;;;;;;5016315;28;20177;-72
2021/10/08 04:36:07;;;;;;;0.70;0.30;;;10.20;98.50;;;;;;5013722;28;20188;-71
2021/10/08 04:38:33;;;;;;;0.10;0.10;;;;;;;;;;5013549;28;20181;-68
2021/10/08 04:41:00;;;;;;;0.20;0.20;;;10.20;98.50;;;;;;5014877;28;20253;-70
2021/10/08 04:43:26;;;;;;;0.30;0.30;;;10.30;98.50;;;;;;5011723;28;20184;-69
2021/10/08 04:45:52;;;;;;;1.43;0.30;;;;;;;;;;5009114;28;20291;-69
2021/10/08 04:48:18;;;;;;;0.30;0.30;;;10.30;98.50;;;;;;5011139;28;20219;-69
2021/10/08 04:50:44;;;;;;;0.33;0.33;;;10.30;98.50;;;;;;5013562;28;20181;-69
2021/10/08 04:53:17;;;;;;;0.20;0.20;;;10.30;98.50;;;;;;5009911;28;20184;-68
2021/10/08 04:55:44;;;;;;;0.10;0.10;;;10.30;98.50;;;;;;5009639;28;20654;-69
2021/10/08 04:58:10;;;;;;;0.70;0.70;;;10.30;98.50;;;;;;5013518;28;20212;-72
2021/10/08 05:00:37;;;;;;;0.23;0.23;;;10.30;98.50;;;;;;5009569;28;20580;-71
2021/10/08 05:03:07;;;;;;;0.40;0.40;;;10.30;98.50;;;;;;5010721;28;21096;-70
2021/10/08 05:05:33;;;;;;;0.30;0.30;;;;;;;;;;5006233;28;21862;-71
2021/10/08 05:07:59;;;;;;;3.33;0.60;;;10.30;98.50;;;;;;5010710;28;20215;-71
2021/10/08 05:10:24;;;;;;;0.20;0.20;;;10.30;98.50;;;;;;5008213;28;20235;-71
2021/10/08 05:12:50;;;;;;;0.30;0.30;;;;;;;;;;5009089;28;20184;-73
2021/10/08 05:15:18;;;;;;;0.20;0.20;;;10.30;98.50;;;;;;5015613;28;20697;-71
2021/10/08 05:17:44;;;;;;;0.20;0.20;;;10.30;98.50;;;;;;5014607;28;20271;-72
2021/10/08 05:20:10;;;;;;;0.53;0.20;;;10.20;98.50;;;;;;5009330;28;20260;-71
2021/10/08 05:22:36;;;;;;;0.50;0.50;;;10.30;98.50;;;;;;5012612;28;20234;-71
2021/10/08 05:25:02;;;;;;;0.40;0.40;;;10.20;98.50;;;;;;5016015;28;20707;-70
2021/10/08 05:27:28;;;;;;;0.33;0.33;;;10.20;98.50;;;;;;5011792;28;20209;-71
2021/10/08 05:29:54;;;;;;;0.57;0.57;;;10.20;98.50;;;;;;5010380;28;20278;-71
2021/10/08 05:32:20;;;;;;;0.30;0.30;;;;;;;;;;5011278;28;20694;-69
2021/10/08 05:34:46;;;;;;;0.20;0.20;;;;;;;;;;5014730;28;20726;-69
2021/10/08 05:37:12;;;;;;;0.70;0.50;;;;;;;;;;5008795;28;20769;-70
2021/10/08 05:39:38;;;;;;;0.37;0.30;;;;;;;;;;5015254;28;20260;-72
2021/10/08 05:42:04;;;;;;;0.30;0.30;;;;;;;;;;5011272;28;20251;-70
2021/10/08 05:44:30;;;;;;;1.17;0.50;;;;;;;;;;5009009;28;20177;-69
2021/10/08 05:46:56;;;;;;;0.20;0.20;;;10.20;98.50;;;;;;5009498;28;21045;-69
2021/10/08 05:49:21;;;;;;;0.37;0.37;;;10.30;98.50;;;;;;5006836;28;20187;-69
2021/10/08 05:51:47;;;;;;;1.23;0.60;;;;;;;;;;5017374;28;20190;-69
2021/10/08 05:54:16;;;;;;;0.43;0.43;;;;;;;;;;5016339;28;20599;-69
2021/10/08 05:56:42;;;;;;;0.40;0.40;;;10.30;98.50;;;;;;5017058;28;20193;-69
2021/10/08 05:59:07;;;;;;;0.40;0.40;;;10.30;98.50;;;;;;5011512;28;20370;-69
2021/10/08 06:01:33;;;;;;;0.30;0.30;;;;;;;;;;5017003;28;20185;-69
2021/10/08 06:04:01;;;;;;;0.70;0.30;;;10.40;98.50;;;;;;5019228;28;20177;-69
2021/10/08 06:06:27;;;;;;;0.23;0.23;;;10.30;98.50;;;;;;5015799;28;20299;-70
2021/10/08 06:08:53;;;;;;;0.30;0.30;;;;;;;;;;5010080;28;20268;-71
2021/10/08 06:11:18;;;;;;;0.37;0.37;;;10.30;98.50;;;;;;5014083;28;20238;-68
2021/10/08 06:13:44;;;;;;;0.47;0.47;;;10.30;98.50;;;;;;5013931;28;20711;-69
2021/10/08 06:16:10;;;;;;;2.63;0.30;;;10.30;98.50;;;;;;5011402;28;20176;-69
2021/10/08 06:18:36;;;;;;;1.50;0.40;;;;;;;;;;5013854;28;20180;-71
2021/10/08 06:21:02;;;;;;;0.30;0.30;;;10.40;98.50;;;;;;5018436;28;20320;-69
2021/10/08 06:23:28;;;;;;;0.47;0.47;;;10.40;98.50;;;;;;5014111;28;21045;-69
2021/10/08 06:25:54;;;;;;;0.20;0.20;;;;;;;;;;5012269;28;20184;-69
2021/10/08 06:28:20;;;;;;;0.33;0.33;;;;;;;;;;5013018;28;20272;-70
2021/10/08 06:30:49;;;;;;;0.40;0.40;;;10.40;98.50;;;;;;5007969;28;20181;-71
2021/10/08 06:33:17;;;;;;;0.33;0.33;;;10.30;98.50;;;;;;5009886;28;20188;-71
2021/10/08 06:35:44;;;;;;;0.37;0.37;;;;;;;;;;5011256;28;20212;-69
2021/10/08 06:38:10;;;;;;;2.10;0.20;;;10.40;98.50;;;;;;5019510;28;20235;-68
2021/10/08 06:40:40;;;;;;;0.30;0.30;;;10.30;98.50;;;;;;5010320;28;20235;-70
2021/10/08 06:43:06;;;;;;;0.30;0.30;;;10.40;98.50;;;;;;5012451;28;20260;-70
2021/10/08 06:45:34;;;;;;;3.67;0.23;;;10.30;98.50;;;;;;5003713;28;20193;-72
2021/10/08 06:48:01;;;;;;;0.20;0.20;;;10.30;98.50;;;;;;5010675;28;20228;-72
2021/10/08 06:50:27;;;;;;;0.40;0.40;;;10.30;98.50;;;;;;5012907;28;20265;-72
2021/10/08 06:52:53;;;;;;;0.30;0.30;;;10.30;98.50;;;;;;5018040;28;20177;-72
2021/10/08 06:55:19;;;;;;;1.50;0.20;;;10.30;98.50;;;;;;5014787;28;20615;-71
2021/10/08 06:57:44;;;;;;;0.30;0.30;;;10.30;98.50;;;;;;5016379;28;20279;-73
2021/10/08 07:00:11;;;;;;;0.50;0.20;;;10.20;98.50;;;;;;5017597;28;20180;-73
2021/10/08 07:02:48;;;;;;;2.83;1.20;;;10.30;98.50;;;;;;5016147;28;20647;-72
2021/10/08 07:05:14;;;;;;;0.50;0.30;;;10.30;98.50;;;;;;5015128;28;20622;-73
2021/10/08 07:07:40;;;;;;;0.40;0.40;;;10.30;98.50;;;;;;5012072;28;20244;-73
2021/10/08 07:10:06;;;;;;;0.50;0.50;;;10.30;98.50;;;;;;5015016;28;20211;-73
2021/10/08 07:12:31;;;;;;;0.60;0.30;;;10.30;98.50;;;;;;5011112;28;20200;-73
2021/10/08 07:14:59;;;;;;;0.30;0.30;;;10.40;98.50;;;;;;5010849;28;20185;-73
2021/10/08 07:17:25;;;;;;;0.47;0.47;;;10.40;98.50;;;;;;5014952;28;20578;-73
2021/10/08 07:19:51;;;;;;;0.20;0.20;;;10.50;98.50;;;;;;5011625;28;20184;-73
2021/10/08 07:22:17;;;;;;;0.30;0.30;;;10.40;98.50;;;;;;5017114;28;20181;-73
2021/10/08 07:24:43;;;;;;;0.33;0.33;;;10.50;98.50;;;;;;5015356;28;20227;-73
2021/10/08 07:27:09;;;;;;;0.30;0.30;;;10.50;98.50;;;;;;5017703;28;20698;-73
2021/10/08 07:29:35;;;;;;;0.40;0.40;;;;;;;;;;5007620;28;20189;-73
2021/10/08 07:32:00;;;;;;;6.97;0.40;;;10.50;98.50;;;;;;5014592;28;20248;-73
2021/10/08 07:34:26;;;;;;;0.30;0.30;;;10.60;98.50;;;;;;5011160;28;20185;-73
2021/10/08 07:36:52;;;;;;;0.43;0.43;;;10.50;98.50;;;;;;5015231;28;20231;-73
2021/10/08 07:39:17;;;;;;;0.30;0.30;;;10.50;98.50;;;;;;5009760;28;20192;-73
2021/10/08 07:41:45;;;;;;;0.43;0.43;;;10.40;98.50;;;;;;5011496;28;20192;-73
2021/10/08 07:44:11;;;;;;;2.15;0.45;;;10.40;98.50;;;;;;5011293;28;20184;-73
2021/10/08 07:46:36;;;;;;;0.30;0.30;;;10.40;98.50;;;;;;5018855;28;20212;-72
2021/10/08 07:49:05;;;;;;;0.30;0.30;;;10.40;98.50;;;;;;5010340;28;20185;-72
2021/10/08 07:51:32;;;;;;;0.30;0.30;;;10.40;98.50;;;;;;5012116;28;20185;-71
2021/10/08 07:53:58;;;;;;;0.30;0.30;;;10.40;98.50;;;;;;5009404;28;20226;-73
2021/10/08 07:56:24;;;;;;;0.30;0.30;;;10.40;98.50;;;;;;5015981;28;20192;-71
2021/10/08 07:58:52;;;;;;;0.30;0.30;;;10.30;98.50;;;;;;5009635;28;20543;-72
2021/10/08 08:01:18;;;;;;;0.27;0.27;;;10.30;98.50;;;;;;5010425;28;20191;-70
2021/10/08 08:03:43;;;;;;;0.20;0.20;;;10.30;98.50;;;;;;5008766;28;20189;-71
2021/10/08 08:06:09;;;;;;;1.40;0.33;;;10.20;98.50;;;;;;5010162;28;20212;-71
2021/10/08 08:08:35;;;;;;;0.37;0.30;;;10.30;98.50;;;;;;5005152;28;20230;-69
2021/10/08 08:11:03;;;;;;;0.27;0.27;;;10.30;98.50;;;;;;5013093;28;20674;-68
2021/10/08 08:13:29;;;;;;;0.30;0.30;;;10.40;98.50;;;;;;5009217;28;20197;-70
2021/10/08 08:15:54;;;;;;;0.30;0.30;;;10.40;98.50;;;;;;5005945;28;20573;-71
2021/10/08 08:18:20;;;;;;;0.33;0.33;;;10.40;98.50;;;;;;5014576;28;20184;-71
2021/10/08 08:20:46;;;;;;;0.20;0.20;;;10.50;98.50;;;;;;5014434;28;20192;-72
2021/10/08 08:23:12;;;;;;;1.00;0.60;;;10.50;98.50;;;;;;5011441;28;20195;-72
2021/10/08 08:25:37;;;;;;;0.10;0.10;;;10.50;98.50;;;;;;5012210;28;20279;-72
2021/10/08 08:28:03;;;;;;;0.38;0.38;;;10.50;98.50;;;;;;5014293;28;20211;-72
2021/10/08 08:30:29;;;;;;;0.40;0.40;;;10.50;98.50;;;;;;5012895;28;20180;-72
2021/10/08 08:32:55;;;;;;;0.50;0.40;;;10.50;98.50;;;;;;5017712;28;20177;-71
2021/10/08 08:35:20;;;;;;;0.90;0.20;;;10.50;98.50;;;;;;5013172;28;20219;-72
2021/10/08 08:37:46;;;;;;;0.40;0.40;;;10.40;98.50;;;;;;5008902;28;20193;-71
2021/10/08 08:40:14;;;;;;;0.40;0.40;;;10.40;98.50;;;;;;5009330;28;20680;-71
2021/10/08 08:42:40;;;;;;;0.20;0.20;;;10.40;98.50;;;;;;5009212;28;20177;-72
2021/10/08 08:45:07;;;;;;;0.40;0.40;;;10.40;98.50;;;;;;5013894;28;20570;-72
2021/10/08 08:47:34;;;;;;;0.30;0.30;;;10.40;98.50;;;;;;5014161;28;20212;-70
2021/10/08 08:50:00;;;;;;;1.83;0.27;;;10.40;98.50;;;;;;5009056;28;20181;-71
2021/10/08 08:52:26;;;;;;;0.30;0.30;;;10.40;98.50;;;;;;5018092;28;20180;-71
2021/10/08 08:54:53;;;;;;;0.30;0.30;;;10.50;98.50;;;;;;5010647;28;20662;-68
2021/10/08 08:57:20;;;;;;;0.67;0.30;;;10.50;98.50;;;;;;5012106;28;20225;-71
2021/10/08 09:00:08;;;;;;;0.30;0.30;;;10.60;98.50;;;;;;5009787;28;20192;-71
2021/10/08 09:02:36;;;;;;;0.67;0.30;;;10.60;98.50;;;;;;5013754;28;20583;-71
2021/10/08 09:05:03;;;;;;;8.03;0.47;;;10.60;98.50;;;;;;5008671;28;20215;-71
2021/10/08 09:07:33;;;;;;;1.20;0.53;;;10.60;98.50;;;;;;5010044;28;20945;-70
2021/10/08 09:10:14;;;;;;;0.53;0.53;;;10.60;98.50;;;;;;5012186;28;20646;-72
2021/10/08 09:12:41;;;;;;;3.03;0.50;;;10.70;98.50;;;;;;5009312;28;20235;-71
2021/10/08 09:15:08;;;;;;;1.00;0.22;;;10.70;98.50;;;;;;5009755;28;20188;-71
2021/10/08 09:17:34;;;;;;;0.52;0.52;;;10.70;98.50;;;;;;5009211;28;20264;-71
2021/10/08 09:20:09;;;;;;;0.23;0.23;;;10.70;98.50;;;;;;5010556;28;20267;-70
2021/10/08 09:22:40;;;;;;;0.50;0.50;;;10.70;98.50;;;;;;5009640;28;20194;-73
2021/10/08 09:25:26;;;;;;;0.30;0.30;;;10.70;98.50;;;;;;5008544;28;20189;-70
2021/10/08 09:28:18;;;;;;;0.50;0.50;;;10.70;98.50;;;;;;5013229;28;20278;-71
2021/10/08 09:30:48;;;;;;;0.40;0.40;;;10.80;98.50;;;;;;5009316;28;20200;-71
2021/10/08 09:33:16;;;;;;;0.60;0.47;;;10.80;98.50;;;;;;5013040;28;20638;-70
2021/10/08 09:35:44;;;;;;;0.77;0.30;;;10.80;98.50;;;;;;5015461;28;20279;-70
2021/10/08 09:38:13;;;;;;;0.50;0.50;;;10.70;98.50;;;;;;5009884;28;20189;-71
2021/10/08 09:40:51;;;;;;;0.50;0.50;;;10.70;98.50;;;;;;5010357;28;20254;-71
2021/10/08 09:43:23;;;;;;;0.63;0.63;;;10.70;98.50;;;;;;5013688;28;20188;-70
2021/10/08 09:45:51;;;;;;;0.40;0.40;;;10.60;98.50;;;;;;5007857;28;20223;-70
2021/10/08 09:48:21;;;;;;;1.63;0.60;;;10.60;98.50;;;;;;5007810;28;20212;-72
2021/10/08 09:51:08;;;;;;;0.90;0.50;;;10.60;98.50;;;;;;5013143;28;20212;-72
2021/10/08 09:53:52;;;;;;;0.35;0.35;;;10.60;98.50;;;;;;5011466;28;20189;-72
2021/10/08 09:56:40;;;;;;;0.30;0.30;;;10.60;98.50;;;;;;5008686;28;20188;-72
2021/10/08 09:59:14;;;;;;;0.77;0.30;;;10.70;98.50;;;;;;5014411;28;20568;-71
2021/10/08 10:01:45;;;;;;;0.57;0.50;;;10.60;98.50;;;;;;5013488;28;20181;-71
2021/10/08 10:04:11;;;;;;;0.30;0.30;;;10.70;98.50;;;;;;5011161;28;20258;-71
2021/10/08 10:06:38;;;;;;;0.40;0.40;;;10.70;98.50;;;;;;5011228;28;20649;-71
2021/10/08 10:09:07;;;;;;;0.40;0.40;;;10.70;98.50;;;;;;5015676;28;20185;-71
2021/10/08 10:11:33;;;;;;;1.13;0.40;;;10.70;98.50;;;;;;5010232;28;20177;-70
2021/10/08 10:14:00;;;;;;;1.45;0.82;;;10.60;98.50;;;;;;5016756;28;20208;-71
2021/10/08 10:16:31;;;;;;;0.40;0.40;;;10.70;98.50;;;;;;5015492;28;20185;-71
2021/10/08 10:18:59;;;;;;;0.50;0.50;;;10.70;98.50;;;;;;5020341;28;20193;-71
2021/10/08 10:21:27;;;;;;;0.43;0.40;;;10.70;98.50;;;;;;5015037;28;20246;-71
2021/10/08 10:23:55;;;;;;;0.32;0.32;;;10.80;98.50;;;;;;5012550;28;20192;-70
2021/10/08 10:26:22;;;;;;;0.50;0.50;;;10.80;98.50;;;;;;5016169;28;21029;-70
2021/10/08 10:28:48;;;;;;;1.85;0.68;;;10.80;98.50;;;;;;5016253;28;20189;-71
2021/10/08 10:31:16;;;;;;;0.50;0.50;;;10.80;98.50;;;;;;5011946;28;20263;-71
2021/10/08 10:33:42;;;;;;;0.60;0.60;;;10.80;98.50;;;;;;5016524;28;20181;-71
2021/10/08 10:36:26;;;;;;;0.47;0.47;;;10.80;98.50;;;;;;5016323;28;20712;-71
2021/10/08 10:39:14;;;;;;;1.58;0.63;;;10.80;98.50;;;;;;5012731;28;20575;-71
2021/10/08 10:41:42;;;;;;;0.60;0.60;;;10.80;98.50;;;;;;5013774;28;20196;-71
2021/10/08 10:44:41;;;;;;;1.20;0.68;;;10.80;98.50;;;;;;5016938;28;20195;-71
2021/10/08 10:47:38;;;;;;;0.50;0.50;;;10.80;98.50;;;;;;5015464;28;20289;-71
2021/10/08 10:50:25;;;;;;;0.40;0.40;;;10.90;98.50;;;;;;5010992;28;20193;-71
2021/10/08 10:52:56;;;;;;;0.40;0.40;;;10.90;98.50;;;;;;5010804;28;20176;-71
2021/10/08 10:55:23;;;;;;;0.63;0.40;;;10.80;98.50;;;;;;5008324;28;20279;-71
2021/10/08 10:57:55;;;;;;;0.20;0.20;;;10.80;98.50;;;;;;5020421;28;20213;-71
2021/10/08 11:00:22;;;;;;;0.43;0.43;;;10.60;98.50;;;;;;5015436;28;20216;-71
2021/10/08 11:02:57;;;;;;;0.63;0.63;;;10.60;98.50;;;;;;5017174;28;20217;-71
2021/10/08 11:05:25;;;;;;;0.63;0.40;;;10.60;98.50;;;;;;5008076;28;20192;-70
2021/10/08 11:08:16;;;;;;;0.50;0.50;;;10.60;98.50;;;;;;5014835;28;20785;-70
2021/10/08 11:11:06;;;;;;;2.28;0.70;;;10.70;98.50;;;;;;5016020;28;20195;-71
2021/10/08 11:13:38;;;;;;;1.10;0.40;;;10.80;98.50;;;;;;5016025;28;20211;-70
2021/10/08 11:16:06;;;;;;;1.35;0.30;;;10.80;98.50;;;;;;5013301;28;20582;-72
2021/10/08 11:18:47;;;;;;;0.20;0.20;;;10.80;98.50;;;;;;5016174;28;20173;-70
2021/10/08 11:21:44;;;;;;;0.60;0.60;;;10.90;98.50;;;;;;5017491;28;20183;-71
2021/10/08 11:24:22;;;;;;;3.40;0.40;;;10.90;98.50;;;;;;5013670;28;20251;-71
2021/10/08 11:26:52;;;;;;;0.40;0.40;;;10.90;98.50;;;;;;5012429;28;21131;-71
2021/10/08 11:29:18;;;;;;;0.40;0.40;;;10.90;98.50;;;;;;5014241;28;20195;-71
2021/10/08 11:31:44;;;;;;;0.30;0.27;;;11.00;98.50;;;;;;5014647;28;20188;-71
2021/10/08 11:34:13;;;;;;;3.83;0.30;;;11.00;98.50;;;;;;5007996;28;20180;-71
2021/10/08 11:36:40;;;;;;;0.30;0.30;;;11.10;98.50;;;;;;5011774;28;20200;-71
2021/10/08 11:39:18;;;;;;;0.35;0.35;;;11.10;98.50;;;;;;5006738;28;20181;-71
2021/10/08 11:42:03;;;;;;;0.40;0.40;;;11.10;98.50;;;;;;5011362;28;20604;-71
2021/10/08 11:44:36;;;;;;;3.50;0.40;;;11.10;98.50;;;;;;5014384;28;20721;-70
2021/10/08 11:47:27;;;;;;;0.50;0.50;;;11.20;98.50;;;;;;5007311;28;20219;-70
2021/10/08 11:50:26;;;;;;;0.50;0.50;;;11.20;98.50;;;;;;5004036;28;20273;-70
2021/10/08 11:52:55;;;;;;;2.40;0.70;;;11.30;98.50;;;;;;5006613;28;20216;-72
2021/10/08 11:55:38;;;;;;;5.47;0.50;;;11.40;98.50;;;;;;5017197;28;20184;-72
2021/10/08 11:58:08;;;;;;;0.30;0.30;;;11.40;98.50;;;;;;5014119;28;20236;-71
2021/10/08 12:00:38;;;;;;;0.40;0.40;;;11.50;98.50;;;;;;5016266;28;20682;-72
2021/10/08 12:03:10;;;;;;;5.25;0.57;;;11.50;98.50;;;;;;5014236;28;20193;-72
2021/10/08 12:05:51;;;;;;;0.47;0.47;;;11.50;98.50;;;;;;5015207;28;20189;-72
2021/10/08 12:08:19;;;;;;;0.57;0.57;;;11.50;98.50;;;;;;5013373;28;20209;-72
2021/10/08 12:10:59;;;;;;;0.88;0.30;;;11.50;98.50;;;;;;5011339;28;20177;-72
2021/10/08 12:13:51;;;;;;;2.20;0.50;;;11.50;98.50;;;;;;5014484;28;20220;-72
2021/10/08 12:16:21;;;;;;;0.52;0.52;;;11.60;98.50;;;;;;5015731;28;20226;-72
2021/10/08 12:18:54;;;;;;;0.60;0.40;;;11.60;98.50;;;;;;5011361;28;20606;-72
2021/10/08 12:21:24;;;;;;;0.47;0.47;;;11.60;98.50;;;;;;5014370;28;20181;-72
2021/10/08 12:24:11;;;;;;;0.20;0.20;;;11.60;98.50;;;;;;5014256;28;20169;-71
2021/10/08 12:27:02;;;;;;;0.35;0.32;;;11.50;98.50;;;;;;5008777;28;20236;-72
2021/10/08 12:29:45;;;;;;;0.30;0.30;;;11.50;98.50;;;;;;5005840;28;20185;-71
2021/10/08 12:32:16;;;;;;;0.30;0.30;;;11.50;98.50;;;;;;5008707;28;20283;-71
2021/10/08 12:34:47;;;;;;;0.30;0.30;;;11.50;98.50;;;;;;5006813;28;20188;-71
2021/10/08 12:37:23;;;;;;;0.22;0.22;;;11.50;98.50;;;;;;5009465;28;20204;-72
2021/10/08 12:40:15;;;;;;;0.20;0.20;;;11.40;98.50;;;;;;5007210;28;20206;-72
2021/10/08 12:42:51;;;;;;;0.30;0.30;;;11.40;98.50;;;;;;5016112;28;20228;-72
2021/10/08 12:45:24;;;;;;;1.02;0.20;;;11.30;98.50;;;;;;5016412;28;20967;-71
2021/10/08 12:47:51;;;;;;;0.40;0.30;;;11.20;98.50;;;;;;5008147;28;20240;-71
2021/10/08 12:50:22;;;;;;;1.50;0.55;;;11.20;98.50;;;;;;5009911;28;20177;-72
2021/10/08 12:52:49;;;;;;;0.28;0.28;;;11.30;98.50;;;;;;5012658;28;20185;-72
2021/10/08 12:55:30;;;;;;;1.27;0.30;;;11.20;98.50;;;;;;5006547;28;20203;-71
2021/10/08 12:58:08;;;;;;;0.20;0.20;;;11.20;98.50;;;;;;5014660;28;20279;-71
2021/10/08 13:00:40;;;;;;;1.45;0.35;;;11.20;98.50;;;;;;5007485;28;20188;-71
2021/10/08 13:03:09;;;;;;;0.30;0.30;;;11.10;98.50;;;;;;5013724;28;20180;-70